sensor_id;sensor_type;location;lat;lon;timestamp;P1;durP1;ratioP1;P2;durP2;ratioP2
76818;SDS011;65772;51.096;17.006;2023-06-24T00:02:34;20.10;;;13.50;;
76818;SDS011;65772;51.096;17.006;2023-06-24T00:07:36;23.00;;;14.40;;
76818;SDS011;65772;51.096;17.006;2023-06-24T00:10:13;20.30;;;15.20;;
76818;SDS011;65772;51.096;17.006;2023-06-24T00:12:46;21.60;;;14.50;;
76818;SDS011;65772;51.096;17.006;2023-06-24T00:15:16;20.70;;;14.00;;
76818;SDS011;65772;51.096;17.006;2023-06-24T00:17:47;22.30;;;14.50;;
76818;SDS011;65772;51.096;17.006;2023-06-24T00:20:18;20.90;;;14.10;;
76818;SDS011;65772;51.096;17.006;2023-06-24T00:22:48;19.70;;;13.20;;
76818;SDS011;65772;51.096;17.006;2023-06-24T00:25:19;23.90;;;13.80;;
76818;SDS011;65772;51.096;17.006;2023-06-24T00:27:49;18.30;;;12.00;;
76818;SDS011;65772;51.096;17.006;2023-06-24T00:30:20;23.10;;;13.20;;
76818;SDS011;65772;51.096;17.006;2023-06-24T00:32:50;19.30;;;12.50;;
76818;SDS011;65772;51.096;17.006;2023-06-24T00:35:21;20.00;;;13.00;;
76818;SDS011;65772;51.096;17.006;2023-06-24T00:37:52;22.50;;;13.30;;
76818;SDS011;65772;51.096;17.006;2023-06-24T00:40:27;17.20;;;12.00;;
76818;SDS011;65772;51.096;17.006;2023-06-24T00:42:58;27.40;;;12.30;;
76818;SDS011;65772;51.096;17.006;2023-06-24T00:45:29;15.30;;;11.20;;
76818;SDS011;65772;51.096;17.006;2023-06-24T00:48:00;17.00;;;11.80;;
76818;SDS011;65772;51.096;17.006;2023-06-24T00:50:33;17.20;;;10.90;;
76818;SDS011;65772;51.096;17.006;2023-06-24T00:53:04;16.50;;;11.70;;
76818;SDS011;65772;51.096;17.006;2023-06-24T00:55:35;15.70;;;11.40;;
76818;SDS011;65772;51.096;17.006;2023-06-24T00:58:06;16.60;;;10.80;;
76818;SDS011;65772;51.096;17.006;2023-06-24T01:00:37;14.90;;;10.60;;
76818;SDS011;65772;51.096;17.006;2023-06-24T01:05:38;14.10;;;10.70;;
76818;SDS011;65772;51.096;17.006;2023-06-24T01:08:09;14.70;;;11.20;;
76818;SDS011;65772;51.096;17.006;2023-06-24T01:10:45;17.40;;;10.60;;
76818;SDS011;65772;51.096;17.006;2023-06-24T01:13:18;15.30;;;9.60;;
76818;SDS011;65772;51.096;17.006;2023-06-24T01:15:49;14.40;;;9.20;;
76818;SDS011;65772;51.096;17.006;2023-06-24T01:18:21;13.30;;;8.50;;
76818;SDS011;65772;51.096;17.006;2023-06-24T01:20:59;11.00;;;8.30;;
76818;SDS011;65772;51.096;17.006;2023-06-24T01:26:50;13.80;;;8.70;;
76818;SDS011;65772;51.096;17.006;2023-06-24T01:29:45;15.10;;;6.90;;
76818;SDS011;65772;51.096;17.006;2023-06-24T01:32:25;7.80;;;4.50;;
76818;SDS011;65772;51.096;17.006;2023-06-24T01:35:04;7.30;;;4.40;;
76818;SDS011;65772;51.096;17.006;2023-06-24T01:37:41;8.10;;;4.30;;
76818;SDS011;65772;51.096;17.006;2023-06-24T01:40:15;5.80;;;4.00;;
76818;SDS011;65772;51.096;17.006;2023-06-24T01:42:54;5.80;;;3.60;;
76818;SDS011;65772;51.096;17.006;2023-06-24T01:45:28;5.40;;;3.90;;
76818;SDS011;65772;51.096;17.006;2023-06-24T01:48:03;6.20;;;3.70;;
76818;SDS011;65772;51.096;17.006;2023-06-24T01:50:42;7.90;;;3.80;;
76818;SDS011;65772;51.096;17.006;2023-06-24T01:53:18;5.60;;;3.90;;
76818;SDS011;65772;51.096;17.006;2023-06-24T01:55:50;8.60;;;4.70;;
76818;SDS011;65772;51.096;17.006;2023-06-24T01:58:23;7.20;;;4.00;;
76818;SDS011;65772;51.096;17.006;2023-06-24T02:00:54;9.30;;;4.80;;
76818;SDS011;65772;51.096;17.006;2023-06-24T02:03:26;10.20;;;4.80;;
76818;SDS011;65772;51.096;17.006;2023-06-24T02:05:58;8.80;;;5.20;;
76818;SDS011;65772;51.096;17.006;2023-06-24T02:08:31;7.50;;;4.90;;
76818;SDS011;65772;51.096;17.006;2023-06-24T02:11:04;7.70;;;5.10;;
76818;SDS011;65772;51.096;17.006;2023-06-24T02:13:37;11.20;;;5.50;;
76818;SDS011;65772;51.096;17.006;2023-06-24T02:16:14;7.80;;;5.10;;
76818;SDS011;65772;51.096;17.006;2023-06-24T02:18:46;9.20;;;5.80;;
76818;SDS011;65772;51.096;17.006;2023-06-24T02:21:18;8.80;;;5.50;;
76818;SDS011;65772;51.096;17.006;2023-06-24T02:23:49;9.40;;;5.50;;
76818;SDS011;65772;51.096;17.006;2023-06-24T02:26:21;7.80;;;5.10;;
76818;SDS011;65772;51.096;17.006;2023-06-24T02:28:53;9.30;;;5.30;;
76818;SDS011;65772;51.096;17.006;2023-06-24T02:31:25;8.00;;;5.30;;
76818;SDS011;65772;51.096;17.006;2023-06-24T02:33:56;10.60;;;5.90;;
76818;SDS011;65772;51.096;17.006;2023-06-24T02:36:26;8.90;;;5.40;;
76818;SDS011;65772;51.096;17.006;2023-06-24T02:38:57;8.60;;;5.50;;
76818;SDS011;65772;51.096;17.006;2023-06-24T02:41:28;8.50;;;5.70;;
76818;SDS011;65772;51.096;17.006;2023-06-24T02:43:58;10.40;;;5.80;;
76818;SDS011;65772;51.096;17.006;2023-06-24T02:46:30;8.10;;;5.10;;
76818;SDS011;65772;51.096;17.006;2023-06-24T02:49:03;10.00;;;5.00;;
76818;SDS011;65772;51.096;17.006;2023-06-24T02:51:34;9.00;;;5.00;;
76818;SDS011;65772;51.096;17.006;2023-06-24T02:56:57;7.90;;;4.60;;
76818;SDS011;65772;51.096;17.006;2023-06-24T02:59:41;6.80;;;4.90;;
76818;SDS011;65772;51.096;17.006;2023-06-24T03:02:12;7.60;;;4.60;;
76818;SDS011;65772;51.096;17.006;2023-06-24T03:04:44;6.30;;;4.30;;
76818;SDS011;65772;51.096;17.006;2023-06-24T03:07:15;7.20;;;4.50;;
76818;SDS011;65772;51.096;17.006;2023-06-24T03:09:48;8.90;;;4.30;;
76818;SDS011;65772;51.096;17.006;2023-06-24T03:15:57;7.40;;;4.30;;
76818;SDS011;65772;51.096;17.006;2023-06-24T03:18:30;9.80;;;4.60;;
